sensor_id;sensor_type;location;lat;lon;timestamp;noise_LAeq;noise_LA_min;noise_LA_max;noise_LA01;noise_LA95
67900;Laerm;54700;51.796;10.956;2023-03-23T00:02:31;32.76;29.23;45.74;;
67900;Laerm;54700;51.796;10.956;2023-03-23T00:05:06;48.41;29.08;64.51;;
67900;Laerm;54700;51.796;10.956;2023-03-23T00:07:34;32.53;29.58;39.35;;
67900;Laerm;54700;51.796;10.956;2023-03-23T00:10:05;33.25;29.22;41.32;;
67900;Laerm;54700;51.796;10.956;2023-03-23T00:12:44;40.34;29.89;50.96;;
67900;Laerm;54700;51.796;10.956;2023-03-23T00:19:16;39.29;29.18;60.79;;
67900;Laerm;54700;51.796;10.956;2023-03-23T00:21:49;31.19;28.39;40.87;;
67900;Laerm;54700;51.796;10.956;2023-03-23T00:24:33;48.58;29.55;63.98;;
67900;Laerm;54700;51.796;10.956;2023-03-23T00:27:42;31.95;28.65;40.50;;
67900;Laerm;54700;51.796;10.956;2023-03-23T00:30:40;32.88;28.58;46.89;;
67900;Laerm;54700;51.796;10.956;2023-03-23T00:33:09;31.94;28.56;41.53;;
67900;Laerm;54700;51.796;10.956;2023-03-23T00:36:24;47.44;28.58;64.99;;
67900;Laerm;54700;51.796;10.956;2023-03-23T00:39:23;31.78;27.62;41.05;;
67900;Laerm;54700;51.796;10.956;2023-03-23T00:42:05;49.81;28.40;66.41;;
67900;Laerm;54700;51.796;10.956;2023-03-23T00:44:46;30.30;27.83;43.73;;
67900;Laerm;54700;51.796;10.956;2023-03-23T00:47:27;31.60;27.96;41.30;;
67900;Laerm;54700;51.796;10.956;2023-03-23T00:50:06;30.12;27.81;40.28;;
67900;Laerm;54700;51.796;10.956;2023-03-23T00:52:43;32.12;27.94;40.69;;
67900;Laerm;54700;51.796;10.956;2023-03-23T00:55:21;31.22;27.62;47.97;;
67900;Laerm;54700;51.796;10.956;2023-03-23T00:58:03;29.70;27.52;40.43;;
67900;Laerm;54700;51.796;10.956;2023-03-23T01:04:12;29.71;27.48;43.53;;
67900;Laerm;54700;51.796;10.956;2023-03-23T01:06:50;29.26;27.08;39.19;;
67900;Laerm;54700;51.796;10.956;2023-03-23T01:12:03;29.82;27.56;41.08;;
67900;Laerm;54700;51.796;10.956;2023-03-23T01:14:35;30.14;27.43;40.99;;
67900;Laerm;54700;51.796;10.956;2023-03-23T01:17:09;45.73;27.57;62.56;;
67900;Laerm;54700;51.796;10.956;2023-03-23T01:19:39;29.46;27.45;40.46;;
67900;Laerm;54700;51.796;10.956;2023-03-23T01:22:14;29.28;27.34;40.34;;
67900;Laerm;54700;51.796;10.956;2023-03-23T01:24:44;29.18;27.10;40.73;;
67900;Laerm;54700;51.796;10.956;2023-03-23T01:27:12;31.41;27.21;56.13;;
67900;Laerm;54700;51.796;10.956;2023-03-23T01:29:41;33.03;27.51;53.17;;
67900;Laerm;54700;51.796;10.956;2023-03-23T01:32:08;29.31;27.37;39.13;;
67900;Laerm;54700;51.796;10.956;2023-03-23T01:34:41;29.66;27.46;39.39;;
67900;Laerm;54700;51.796;10.956;2023-03-23T01:37:12;30.20;27.38;40.24;;
67900;Laerm;54700;51.796;10.956;2023-03-23T01:39:39;30.47;27.94;39.03;;
67900;Laerm;54700;51.796;10.956;2023-03-23T01:42:09;29.95;26.67;39.07;;
67900;Laerm;54700;51.796;10.956;2023-03-23T01:48:27;29.59;27.43;40.81;;
67900;Laerm;54700;51.796;10.956;2023-03-23T01:54:18;38.52;31.86;52.90;;
67900;Laerm;54700;51.796;10.956;2023-03-23T02:00:15;54.53;28.81;70.98;;
67900;Laerm;54700;51.796;10.956;2023-03-23T02:02:57;37.84;27.81;50.16;;
67900;Laerm;54700;51.796;10.956;2023-03-23T02:08:22;36.71;30.47;48.87;;
67900;Laerm;54700;51.796;10.956;2023-03-23T02:11:01;35.48;28.89;49.77;;
67900;Laerm;54700;51.796;10.956;2023-03-23T02:13:39;53.56;29.06;71.31;;
67900;Laerm;54700;51.796;10.956;2023-03-23T02:16:48;33.02;27.98;48.67;;
67900;Laerm;54700;51.796;10.956;2023-03-23T02:19:44;30.70;27.97;43.38;;
67900;Laerm;54700;51.796;10.956;2023-03-23T02:26:07;32.39;27.55;47.11;;
67900;Laerm;54700;51.796;10.956;2023-03-23T02:29:37;30.01;27.58;41.09;;
67900;Laerm;54700;51.796;10.956;2023-03-23T02:35:38;30.90;27.83;46.07;;
67900;Laerm;54700;51.796;10.956;2023-03-23T02:38:38;30.19;27.49;40.05;;
67900;Laerm;54700;51.796;10.956;2023-03-23T02:41:22;48.46;27.63;63.94;;
67900;Laerm;54700;51.796;10.956;2023-03-23T02:47:02;31.21;28.02;41.12;;
67900;Laerm;54700;51.796;10.956;2023-03-23T02:49:58;31.55;27.71;43.05;;
67900;Laerm;54700;51.796;10.956;2023-03-23T02:53:06;31.49;28.16;42.50;;
67900;Laerm;54700;51.796;10.956;2023-03-23T02:55:57;56.82;27.67;75.15;;
67900;Laerm;54700;51.796;10.956;2023-03-23T02:58:52;30.51;27.54;41.23;;
67900;Laerm;54700;51.796;10.956;2023-03-23T03:01:59;55.67;27.68;70.74;;
67900;Laerm;54700;51.796;10.956;2023-03-23T03:07:33;50.63;27.76;66.73;;
67900;Laerm;54700;51.796;10.956;2023-03-23T03:10:10;51.08;27.76;68.41;;
67900;Laerm;54700;51.796;10.956;2023-03-23T03:12:46;31.22;28.34;45.62;;
67900;Laerm;54700;51.796;10.956;2023-03-23T03:15:55;48.27;27.79;65.51;;
67900;Laerm;54700;51.796;10.956;2023-03-23T03:18:32;31.17;27.64;41.14;;
67900;Laerm;54700;51.796;10.956;2023-03-23T03:21:12;33.91;28.84;45.53;;
67900;Laerm;54700;51.796;10.956;2023-03-23T03:23:48;33.35;29.08;46.37;;
67900;Laerm;54700;51.796;10.956;2023-03-23T03:26:20;52.79;29.50;65.94;;
67900;Laerm;54700;51.796;10.956;2023-03-23T03:28:53;54.72;31.06;68.21;;
67900;Laerm;54700;51.796;10.956;2023-03-23T03:31:26;58.84;30.74;74.62;;
67900;Laerm;54700;51.796;10.956;2023-03-23T03:33:55;53.73;29.90;67.78;;
67900;Laerm;54700;51.796;10.956;2023-03-23T03:36:34;53.94;31.07;68.04;;
67900;Laerm;54700;51.796;10.956;2023-03-23T03:39:09;48.13;29.16;66.31;;
67900;Laerm;54700;51.796;10.956;2023-03-23T03:41:52;50.98;30.75;69.41;;
67900;Laerm;54700;51.796;10.956;2023-03-23T03:44:19;59.35;33.33;73.35;;
67900;Laerm;54700;51.796;10.956;2023-03-23T03:46:47;50.37;31.76;68.15;;
67900;Laerm;54700;51.796;10.956;2023-03-23T03:49:14;51.53;31.69;70.84;;
67900;Laerm;54700;51.796;10.956;2023-03-23T03:51:49;53.82;31.60;71.40;;
67900;Laerm;54700;51.796;10.956;2023-03-23T03:54:39;60.81;34.89;78.19;;
67900;Laerm;54700;51.796;10.956;2023-03-23T03:57:11;53.49;32.37;68.83;;
67900;Laerm;54700;51.796;10.956;2023-03-23T03:59:48;57.32;33.00;69.08;;
67900;Laerm;54700;51.796;10.956;2023-03-23T04:02:20;58.43;34.73;70.62;;
67900;Laerm;54700;51.796;10.956;2023-03-23T04:05:01;54.54;33.64;69.27;;
67900;Laerm;54700;51.796;10.956;2023-03-23T04:07:32;52.07;32.85;65.95;;
67900;Laerm;54700;51.796;10.956;2023-03-23T04:10:11;56.29;34.16;67.33;;
67900;Laerm;54700;51.796;10.956;2023-03-23T04:12:58;56.48;38.53;68.34;;
67900;Laerm;54700;51.796;10.956;2023-03-23T04:15:51;57.49;40.58;71.18;;
67900;Laerm;54700;51.796;10.956;2023-03-23T04:18:29;52.27;37.45;65.79;;
67900;Laerm;54700;51.796;10.956;2023-03-23T04:24:09;57.22;38.90;70.68;;
67900;Laerm;54700;51.796;10.956;2023-03-23T04:27:10;57.77;39.08;70.11;;
67900;Laerm;54700;51.796;10.956;2023-03-23T04:29:54;54.46;34.36;68.86;;
67900;Laerm;54700;51.796;10.956;2023-03-23T04:32:37;59.39;35.00;72.08;;
67900;Laerm;54700;51.796;10.956;2023-03-23T04:35:27;54.30;35.30;67.41;;
67900;Laerm;54700;51.796;10.956;2023-03-23T04:41:12;59.84;36.21;73.14;;
67900;Laerm;54700;51.796;10.956;2023-03-23T04:43:50;57.47;35.78;68.24;;
67900;Laerm;54700;51.796;10.956;2023-03-23T04:47:00;59.48;34.92;70.81;;
67900;Laerm;54700;51.796;10.956;2023-03-23T04:49:28;60.84;37.76;72.16;;
67900;Laerm;54700;51.796;10.956;2023-03-23T04:51:55;59.42;37.42;70.24;;
67900;Laerm;54700;51.796;10.956;2023-03-23T04:54:28;61.45;35.94;73.55;;
67900;Laerm;54700;51.796;10.956;2023-03-23T04:56:58;61.16;32.98;76.57;;
67900;Laerm;54700;51.796;10.956;2023-03-23T04:59:39;62.89;36.83;74.79;;
67900;Laerm;54700;51.796;10.956;2023-03-23T05:02:42;58.98;34.27;69.41;;
67900;Laerm;54700;51.796;10.956;2023-03-23T05:05:24;58.37;37.77;69.85;;
67900;Laerm;54700;51.796;10.956;2023-03-23T05:07:56;60.62;36.45;69.89;;
67900;Laerm;54700;51.796;10.956;2023-03-23T05:10:36;58.55;37.44;69.26;;
67900;Laerm;54700;51.796;10.956;2023-03-23T05:13:19;56.57;35.81;70.46;;
67900;Laerm;54700;51.796;10.956;2023-03-23T05:16:08;61.49;38.83;75.42;;
67900;Laerm;54700;51.796;10.956;2023-03-23T05:18:48;62.70;39.40;72.32;;
67900;Laerm;54700;51.796;10.956;2023-03-23T05:21:19;60.71;39.31;70.72;;
67900;Laerm;54700;51.796;10.956;2023-03-23T05:23:55;61.45;36.29;71.72;;
67900;Laerm;54700;51.796;10.956;2023-03-23T05:26:27;64.14;41.31;72.80;;
67900;Laerm;54700;51.796;10.956;2023-03-23T05:29:03;62.70;40.96;71.59;;
67900;Laerm;54700;51.796;10.956;2023-03-23T05:31:33;65.09;43.04;74.41;;
67900;Laerm;54700;51.796;10.956;2023-03-23T05:34:10;60.88;42.24;73.42;;
67900;Laerm;54700;51.796;10.956;2023-03-23T05:36:39;64.07;40.06;74.32;;
67900;Laerm;54700;51.796;10.956;2023-03-23T05:39:10;64.57;44.75;74.63;;
67900;Laerm;54700;51.796;10.956;2023-03-23T05:41:39;66.35;49.66;76.64;;
67900;Laerm;54700;51.796;10.956;2023-03-23T05:44:07;67.05;46.78;77.02;;
67900;Laerm;54700;51.796;10.956;2023-03-23T05:50:10;63.75;44.06;72.29;;
67900;Laerm;54700;51.796;10.956;2023-03-23T05:52:48;65.42;47.13;73.82;;
67900;Laerm;54700;51.796;10.956;2023-03-23T05:55:44;64.85;54.49;73.72;;
67900;Laerm;54700;51.796;10.956;2023-03-23T05:58:34;64.67;47.33;76.22;;
67900;Laerm;54700;51.796;10.956;2023-03-23T06:01:24;64.76;40.41;74.36;;
67900;Laerm;54700;51.796;10.956;2023-03-23T06:04:29;63.68;48.12;76.38;;
67900;Laerm;54700;51.796;10.956;2023-03-23T06:07:16;66.13;50.93;73.46;;
67900;Laerm;54700;51.796;10.956;2023-03-23T06:10:34;63.82;48.72;72.33;;
67900;Laerm;54700;51.796;10.956;2023-03-23T06:13:45;64.30;41.21;73.24;;
67900;Laerm;54700;51.796;10.956;2023-03-23T06:16:28;63.67;40.38;73.10;;
67900;Laerm;54700;51.796;10.956;2023-03-23T06:19:05;64.35;42.22;75.48;;
67900;Laerm;54700;51.796;10.956;2023-03-23T06:22:05;64.77;48.61;73.63;;
67900;Laerm;54700;51.796;10.956;2023-03-23T06:24:39;62.91;40.67;74.44;;
67900;Laerm;54700;51.796;10.956;2023-03-23T06:27:24;64.67;50.75;72.36;;
67900;Laerm;54700;51.796;10.956;2023-03-23T06:30:27;63.35;47.47;74.17;;
67900;Laerm;54700;51.796;10.956;2023-03-23T06:32:59;66.01;46.73;75.77;;
67900;Laerm;54700;51.796;10.956;2023-03-23T06:42:09;64.02;49.23;73.84;;
67900;Laerm;54700;51.796;10.956;2023-03-23T06:44:51;63.82;49.95;74.10;;
67900;Laerm;54700;51.796;10.956;2023-03-23T06:47:42;64.83;53.01;74.41;;
67900;Laerm;54700;51.796;10.956;2023-03-23T06:53:34;62.95;41.87;72.27;;
67900;Laerm;54700;51.796;10.956;2023-03-23T07:48:24;61.36;43.06;71.07;;
67900;Laerm;54700;51.796;10.956;2023-03-23T07:51:12;60.78;39.48;70.32;;
67900;Laerm;54700;51.796;10.956;2023-03-23T07:53:46;62.80;43.85;71.94;;
67900;Laerm;54700;51.796;10.956;2023-03-23T07:56:18;63.58;40.33;75.67;;
67900;Laerm;54700;51.796;10.956;2023-03-23T07:58:51;62.60;41.67;71.91;;
67900;Laerm;54700;51.796;10.956;2023-03-23T08:01:49;62.04;44.23;72.07;;
67900;Laerm;54700;51.796;10.956;2023-03-23T08:04:48;62.72;49.61;71.87;;
67900;Laerm;54700;51.796;10.956;2023-03-23T08:07:46;61.04;41.73;70.16;;
67900;Laerm;54700;51.796;10.956;2023-03-23T10:24:20;62.07;42.04;69.16;;
67900;Laerm;54700;51.796;10.956;2023-03-23T10:26:59;62.84;48.52;73.57;;
67900;Laerm;54700;51.796;10.956;2023-03-23T10:29:31;63.80;48.03;76.17;;
67900;Laerm;54700;51.796;10.956;2023-03-23T10:32:10;63.30;48.44;72.21;;
67900;Laerm;54700;51.796;10.956;2023-03-23T10:34:42;64.80;43.68;84.25;;
67900;Laerm;54700;51.796;10.956;2023-03-23T10:37:16;62.59;48.22;73.56;;
67900;Laerm;54700;51.796;10.956;2023-03-23T10:39:49;62.39;46.05;77.73;;
67900;Laerm;54700;51.796;10.956;2023-03-23T10:43:14;66.18;45.38;85.35;;
67900;Laerm;54700;51.796;10.956;2023-03-23T10:46:05;62.73;45.82;79.68;;
67900;Laerm;54700;51.796;10.956;2023-03-23T10:48:56;61.18;42.52;71.46;;
67900;Laerm;54700;51.796;10.956;2023-03-23T10:51:30;61.66;45.42;78.74;;
67900;Laerm;54700;51.796;10.956;2023-03-23T10:54:25;61.18;43.84;70.71;;
67900;Laerm;54700;51.796;10.956;2023-03-23T11:00:30;63.82;52.22;76.30;;
67900;Laerm;54700;51.796;10.956;2023-03-23T11:06:42;63.08;50.07;71.48;;
67900;Laerm;54700;51.796;10.956;2023-03-23T11:09:20;62.29;51.04;73.02;;
67900;Laerm;54700;51.796;10.956;2023-03-23T11:15:22;61.52;47.55;69.84;;
67900;Laerm;54700;51.796;10.956;2023-03-23T11:18:01;60.95;40.10;70.67;;
67900;Laerm;54700;51.796;10.956;2023-03-23T11:20:35;71.64;41.89;93.41;;
67900;Laerm;54700;51.796;10.956;2023-03-23T11:23:15;62.38;42.93;72.37;;
67900;Laerm;54700;51.796;10.956;2023-03-23T11:25:58;61.63;47.51;71.43;;
67900;Laerm;54700;51.796;10.956;2023-03-23T11:28:29;62.22;46.44;78.26;;
67900;Laerm;54700;51.796;10.956;2023-03-23T11:31:07;62.83;48.48;71.14;;
67900;Laerm;54700;51.796;10.956;2023-03-23T11:33:37;64.02;51.53;72.45;;
67900;Laerm;54700;51.796;10.956;2023-03-23T11:36:07;62.04;45.85;73.35;;
67900;Laerm;54700;51.796;10.956;2023-03-23T11:38:38;64.36;51.48;73.42;;
67900;Laerm;54700;51.796;10.956;2023-03-23T11:41:09;61.78;49.97;73.96;;
67900;Laerm;54700;51.796;10.956;2023-03-23T11:43:44;65.10;52.22;78.44;;
67900;Laerm;54700;51.796;10.956;2023-03-23T11:46:19;63.26;50.33;75.39;;
67900;Laerm;54700;51.796;10.956;2023-03-23T11:48:52;62.11;47.20;71.23;;
67900;Laerm;54700;51.796;10.956;2023-03-23T11:51:30;62.95;48.91;71.56;;
67900;Laerm;54700;51.796;10.956;2023-03-23T11:54:09;60.68;43.49;71.28;;
67900;Laerm;54700;51.796;10.956;2023-03-23T11:56:45;64.15;47.34;81.90;;
67900;Laerm;54700;51.796;10.956;2023-03-23T11:59:13;60.77;44.45;75.69;;
67900;Laerm;54700;51.796;10.956;2023-03-23T12:01:51;61.67;45.40;74.09;;
67900;Laerm;54700;51.796;10.956;2023-03-23T12:07:32;63.57;46.14;79.43;;
67900;Laerm;54700;51.796;10.956;2023-03-23T12:10:14;61.95;48.09;74.95;;
67900;Laerm;54700;51.796;10.956;2023-03-23T12:12:50;64.15;50.73;75.11;;
67900;Laerm;54700;51.796;10.956;2023-03-23T12:15:24;62.63;44.75;77.17;;
67900;Laerm;54700;51.796;10.956;2023-03-23T12:20:51;63.82;51.02;75.20;;
67900;Laerm;54700;51.796;10.956;2023-03-23T12:23:31;59.61;45.62;68.03;;
67900;Laerm;54700;51.796;10.956;2023-03-23T12:26:13;58.57;45.47;69.05;;
67900;Laerm;54700;51.796;10.956;2023-03-23T12:32:31;61.62;46.44;85.41;;
67900;Laerm;54700;51.796;10.956;2023-03-23T12:35:04;64.15;47.82;74.06;;
67900;Laerm;54700;51.796;10.956;2023-03-23T12:37:45;64.54;47.60;77.85;;
67900;Laerm;54700;51.796;10.956;2023-03-23T12:40:41;65.37;53.64;86.54;;
67900;Laerm;54700;51.796;10.956;2023-03-23T12:43:33;62.09;49.78;74.99;;
67900;Laerm;54700;51.796;10.956;2023-03-23T12:46:15;62.32;49.20;72.74;;
67900;Laerm;54700;51.796;10.956;2023-03-23T12:49:03;64.58;47.93;83.06;;
67900;Laerm;54700;51.796;10.956;2023-03-23T12:52:03;63.66;51.80;73.61;;
67900;Laerm;54700;51.796;10.956;2023-03-23T12:54:47;65.87;50.88;78.88;;
67900;Laerm;54700;51.796;10.956;2023-03-23T12:57:33;61.73;44.39;71.21;;
67900;Laerm;54700;51.796;10.956;2023-03-23T13:00:17;64.84;47.12;80.11;;
67900;Laerm;54700;51.796;10.956;2023-03-23T13:02:51;64.42;48.73;76.62;;
67900;Laerm;54700;51.796;10.956;2023-03-23T13:05:40;62.36;48.94;72.98;;
67900;Laerm;54700;51.796;10.956;2023-03-23T13:08:25;63.85;48.10;75.43;;
67900;Laerm;54700;51.796;10.956;2023-03-23T13:11:08;60.84;41.29;71.21;;
67900;Laerm;54700;51.796;10.956;2023-03-23T13:14:01;64.40;47.08;77.16;;
67900;Laerm;54700;51.796;10.956;2023-03-23T13:16:38;61.48;42.85;71.84;;
67900;Laerm;54700;51.796;10.956;2023-03-23T13:19:34;62.81;41.88;78.82;;
67900;Laerm;54700;51.796;10.956;2023-03-23T13:22:09;62.38;45.37;70.61;;
67900;Laerm;54700;51.796;10.956;2023-03-23T13:24:54;62.55;47.78;73.66;;
67900;Laerm;54700;51.796;10.956;2023-03-23T13:27:32;65.34;46.67;83.87;;
67900;Laerm;54700;51.796;10.956;2023-03-23T13:30:29;61.06;49.02;72.21;;
67900;Laerm;54700;51.796;10.956;2023-03-23T13:33:03;63.12;50.76;71.07;;
67900;Laerm;54700;51.796;10.956;2023-03-23T13:35:35;63.48;51.37;71.97;;
67900;Laerm;54700;51.796;10.956;2023-03-23T13:38:13;61.59;42.64;69.18;;
67900;Laerm;54700;51.796;10.956;2023-03-23T13:42:17;60.76;44.32;71.28;;
67900;Laerm;54700;51.796;10.956;2023-03-23T13:44:22;64.09;46.43;74.18;;
67900;Laerm;54700;51.796;10.956;2023-03-23T13:47:07;63.15;46.04;70.48;;
67900;Laerm;54700;51.796;10.956;2023-03-23T13:50:09;62.72;46.62;71.33;;
67900;Laerm;54700;51.796;10.956;2023-03-23T13:52:50;61.10;44.54;71.18;;
67900;Laerm;54700;51.796;10.956;2023-03-23T13:55:50;63.24;49.95;75.05;;
67900;Laerm;54700;51.796;10.956;2023-03-23T13:58:24;62.11;48.08;69.67;;
67900;Laerm;54700;51.796;10.956;2023-03-23T14:01:13;64.73;51.25;75.39;;
67900;Laerm;54700;51.796;10.956;2023-03-23T14:03:59;63.59;50.80;70.48;;
67900;Laerm;54700;51.796;10.956;2023-03-23T14:06:34;65.72;45.79;81.08;;
67900;Laerm;54700;51.796;10.956;2023-03-23T14:09:06;64.33;50.71;72.97;;
67900;Laerm;54700;51.796;10.956;2023-03-23T14:11:47;61.90;45.08;71.04;;
67900;Laerm;54700;51.796;10.956;2023-03-23T14:15:42;61.86;46.80;71.36;;
67900;Laerm;54700;51.796;10.956;2023-03-23T14:17:21;64.65;45.70;80.82;;
67900;Laerm;54700;51.796;10.956;2023-03-23T14:19:53;62.09;43.93;70.42;;
67900;Laerm;54700;51.796;10.956;2023-03-23T14:22:32;64.12;49.07;73.68;;
67900;Laerm;54700;51.796;10.956;2023-03-23T14:25:21;64.39;43.30;81.04;;
67900;Laerm;54700;51.796;10.956;2023-03-23T14:28:18;62.61;47.98;83.44;;
67900;Laerm;54700;51.796;10.956;2023-03-23T14:48:05;61.73;43.53;72.73;;
67900;Laerm;54700;51.796;10.956;2023-03-23T14:50:29;64.27;44.90;74.37;;
67900;Laerm;54700;51.796;10.956;2023-03-23T14:57:01;64.45;44.40;81.51;;
67900;Laerm;54700;51.796;10.956;2023-03-23T14:59:11;64.92;46.25;76.25;;
67900;Laerm;54700;51.796;10.956;2023-03-23T15:01:50;63.33;49.00;76.24;;
67900;Laerm;54700;51.796;10.956;2023-03-23T15:04:35;63.40;46.68;70.98;;
67900;Laerm;54700;51.796;10.956;2023-03-23T15:10:24;64.70;44.61;77.91;;
67900;Laerm;54700;51.796;10.956;2023-03-23T15:12:58;62.71;40.41;73.48;;
67900;Laerm;54700;51.796;10.956;2023-03-23T15:15:49;63.16;47.17;70.89;;
67900;Laerm;54700;51.796;10.956;2023-03-23T15:18:36;62.51;42.67;75.74;;
67900;Laerm;54700;51.796;10.956;2023-03-23T15:21:22;63.70;50.99;70.18;;
67900;Laerm;54700;51.796;10.956;2023-03-23T15:23:52;64.23;48.81;72.10;;
67900;Laerm;54700;51.796;10.956;2023-03-23T15:26:41;63.33;51.47;71.60;;
67900;Laerm;54700;51.796;10.956;2023-03-23T15:29:16;65.64;52.13;79.61;;
67900;Laerm;54700;51.796;10.956;2023-03-23T15:31:54;64.56;51.11;76.50;;
67900;Laerm;54700;51.796;10.956;2023-03-23T15:34:34;61.99;46.29;71.78;;
67900;Laerm;54700;51.796;10.956;2023-03-23T15:37:21;63.18;44.20;71.46;;
67900;Laerm;54700;51.796;10.956;2023-03-23T15:39:51;64.64;51.81;77.80;;
67900;Laerm;54700;51.796;10.956;2023-03-23T15:42:22;64.00;50.49;71.34;;
67900;Laerm;54700;51.796;10.956;2023-03-23T15:45:16;63.17;43.20;74.96;;
67900;Laerm;54700;51.796;10.956;2023-03-23T15:48:14;61.60;44.14;74.41;;
67900;Laerm;54700;51.796;10.956;2023-03-23T15:50:49;63.28;45.62;73.64;;
67900;Laerm;54700;51.796;10.956;2023-03-23T15:53:31;62.88;43.26;70.35;;
67900;Laerm;54700;51.796;10.956;2023-03-23T15:56:03;63.46;44.78;77.37;;
67900;Laerm;54700;51.796;10.956;2023-03-23T15:58:31;61.35;40.45;73.38;;
67900;Laerm;54700;51.796;10.956;2023-03-23T16:01:19;63.70;47.43;74.34;;
67900;Laerm;54700;51.796;10.956;2023-03-23T16:03:54;61.30;40.22;70.95;;
67900;Laerm;54700;51.796;10.956;2023-03-23T16:06:42;61.97;43.72;73.98;;
67900;Laerm;54700;51.796;10.956;2023-03-23T16:09:47;61.84;44.05;70.63;;
67900;Laerm;54700;51.796;10.956;2023-03-23T16:12:15;62.20;47.87;70.71;;
67900;Laerm;54700;51.796;10.956;2023-03-23T16:14:52;62.11;46.57;70.60;;
67900;Laerm;54700;51.796;10.956;2023-03-23T16:17:25;62.73;42.46;73.21;;
67900;Laerm;54700;51.796;10.956;2023-03-23T16:20:10;61.55;48.00;70.26;;
67900;Laerm;54700;51.796;10.956;2023-03-23T16:22:55;60.89;40.41;72.64;;
67900;Laerm;54700;51.796;10.956;2023-03-23T16:27:20;62.34;46.86;79.18;;
67900;Laerm;54700;51.796;10.956;2023-03-23T16:28:39;61.47;41.91;68.97;;
67900;Laerm;54700;51.796;10.956;2023-03-23T16:31:21;62.97;46.99;74.95;;
67900;Laerm;54700;51.796;10.956;2023-03-23T16:34:01;62.75;38.67;77.02;;
67900;Laerm;54700;51.796;10.956;2023-03-23T16:36:34;61.06;40.57;71.09;;
67900;Laerm;54700;51.796;10.956;2023-03-23T16:39:21;62.84;44.43;72.33;;
67900;Laerm;54700;51.796;10.956;2023-03-23T16:42:06;63.55;48.32;73.52;;
67900;Laerm;54700;51.796;10.956;2023-03-23T16:44:42;62.88;39.05;76.77;;
67900;Laerm;54700;51.796;10.956;2023-03-23T16:47:11;59.76;39.93;70.82;;
67900;Laerm;54700;51.796;10.956;2023-03-23T16:49:38;59.44;39.49;70.94;;
67900;Laerm;54700;51.796;10.956;2023-03-23T16:52:06;61.84;43.31;69.42;;
67900;Laerm;54700;51.796;10.956;2023-03-23T16:54:46;61.98;40.65;69.87;;
67900;Laerm;54700;51.796;10.956;2023-03-23T16:57:26;61.47;44.20;70.63;;
67900;Laerm;54700;51.796;10.956;2023-03-23T17:00:06;61.75;43.54;71.05;;
67900;Laerm;54700;51.796;10.956;2023-03-23T17:02:37;62.42;46.13;69.95;;
67900;Laerm;54700;51.796;10.956;2023-03-23T17:05:13;63.29;46.33;75.21;;
67900;Laerm;54700;51.796;10.956;2023-03-23T17:07:48;60.32;40.70;69.18;;
67900;Laerm;54700;51.796;10.956;2023-03-23T17:10:39;62.11;42.37;76.10;;
67900;Laerm;54700;51.796;10.956;2023-03-23T17:13:11;62.13;42.96;70.75;;
67900;Laerm;54700;51.796;10.956;2023-03-23T17:15:42;62.18;41.64;71.41;;
67900;Laerm;54700;51.796;10.956;2023-03-23T17:18:09;60.00;38.90;69.54;;
67900;Laerm;54700;51.796;10.956;2023-03-23T17:20:41;61.21;42.88;72.34;;
67900;Laerm;54700;51.796;10.956;2023-03-23T17:23:14;60.57;41.14;68.79;;
67900;Laerm;54700;51.796;10.956;2023-03-23T17:25:48;61.29;42.26;73.29;;
67900;Laerm;54700;51.796;10.956;2023-03-23T17:28:38;62.27;41.54;71.75;;
67900;Laerm;54700;51.796;10.956;2023-03-23T17:31:17;59.34;40.44;68.64;;
67900;Laerm;54700;51.796;10.956;2023-03-23T17:34:06;61.10;39.86;70.85;;
67900;Laerm;54700;51.796;10.956;2023-03-23T17:36:44;59.48;41.16;70.05;;
67900;Laerm;54700;51.796;10.956;2023-03-23T17:39:37;59.42;41.61;79.31;;
67900;Laerm;54700;51.796;10.956;2023-03-23T17:45:18;60.36;39.24;68.52;;
67900;Laerm;54700;51.796;10.956;2023-03-23T17:50:59;59.99;39.86;71.21;;
67900;Laerm;54700;51.796;10.956;2023-03-23T17:53:49;62.46;34.54;77.13;;
67900;Laerm;54700;51.796;10.956;2023-03-23T17:56:27;60.99;36.27;74.78;;
67900;Laerm;54700;51.796;10.956;2023-03-23T17:59:11;60.05;37.58;69.12;;
67900;Laerm;54700;51.796;10.956;2023-03-23T18:01:52;58.08;35.37;70.86;;
67900;Laerm;54700;51.796;10.956;2023-03-23T18:04:37;57.74;38.13;69.07;;
67900;Laerm;54700;51.796;10.956;2023-03-23T18:07:09;59.57;40.32;69.16;;
67900;Laerm;54700;51.796;10.956;2023-03-23T18:09:37;61.36;35.65;73.68;;
67900;Laerm;54700;51.796;10.956;2023-03-23T18:12:06;60.26;35.21;70.05;;
67900;Laerm;54700;51.796;10.956;2023-03-23T18:14:33;56.33;31.87;68.54;;
67900;Laerm;54700;51.796;10.956;2023-03-23T18:17:05;57.16;32.50;66.66;;
67900;Laerm;54700;51.796;10.956;2023-03-23T18:19:33;57.69;30.54;69.91;;
67900;Laerm;54700;51.796;10.956;2023-03-23T18:22:11;59.20;31.78;70.41;;
67900;Laerm;54700;51.796;10.956;2023-03-23T18:24:48;61.06;34.40;72.97;;
67900;Laerm;54700;51.796;10.956;2023-03-23T18:27:29;58.86;33.86;69.98;;
67900;Laerm;54700;51.796;10.956;2023-03-23T18:30:00;59.35;34.69;68.89;;
67900;Laerm;54700;51.796;10.956;2023-03-23T18:32:33;57.82;33.31;68.91;;
67900;Laerm;54700;51.796;10.956;2023-03-23T18:35:11;59.53;30.20;72.69;;
67900;Laerm;54700;51.796;10.956;2023-03-23T18:37:52;54.93;31.27;68.89;;
67900;Laerm;54700;51.796;10.956;2023-03-23T18:40:29;57.15;32.08;67.16;;
67900;Laerm;54700;51.796;10.956;2023-03-23T18:43:03;57.36;34.93;66.48;;
67900;Laerm;54700;51.796;10.956;2023-03-23T18:45:56;56.28;31.96;67.48;;
67900;Laerm;54700;51.796;10.956;2023-03-23T18:48:30;57.15;32.07;67.63;;
67900;Laerm;54700;51.796;10.956;2023-03-23T18:51:02;56.77;32.01;68.51;;
67900;Laerm;54700;51.796;10.956;2023-03-23T18:53:30;56.70;37.79;66.85;;
67900;Laerm;54700;51.796;10.956;2023-03-23T18:56:08;59.93;32.07;74.83;;
67900;Laerm;54700;51.796;10.956;2023-03-23T18:58:44;59.95;34.03;73.46;;
67900;Laerm;54700;51.796;10.956;2023-03-23T19:01:13;57.32;33.14;68.63;;
67900;Laerm;54700;51.796;10.956;2023-03-23T19:03:42;56.76;31.07;68.70;;
67900;Laerm;54700;51.796;10.956;2023-03-23T19:06:14;58.04;32.09;71.04;;
67900;Laerm;54700;51.796;10.956;2023-03-23T19:08:44;57.42;30.18;70.85;;
67900;Laerm;54700;51.796;10.956;2023-03-23T19:11:11;55.46;30.65;68.76;;
67900;Laerm;54700;51.796;10.956;2023-03-23T19:13:48;60.30;34.67;70.60;;
67900;Laerm;54700;51.796;10.956;2023-03-23T19:16:15;58.83;35.85;69.80;;
67900;Laerm;54700;51.796;10.956;2023-03-23T19:18:47;57.86;31.28;68.82;;
67900;Laerm;54700;51.796;10.956;2023-03-23T19:21:17;41.63;30.70;59.36;;
67900;Laerm;54700;51.796;10.956;2023-03-23T19:23:44;54.79;29.76;66.59;;
67900;Laerm;54700;51.796;10.956;2023-03-23T19:26:18;59.20;32.18;74.66;;
67900;Laerm;54700;51.796;10.956;2023-03-23T19:28:47;47.57;30.05;63.20;;
67900;Laerm;54700;51.796;10.956;2023-03-23T19:31:14;57.38;29.70;67.97;;
67900;Laerm;54700;51.796;10.956;2023-03-23T19:33:44;59.66;30.62;75.08;;
67900;Laerm;54700;51.796;10.956;2023-03-23T19:36:14;54.92;31.95;68.51;;